sensor_id;sensor_type;location;lat;lon;timestamp;P1;durP1;ratioP1;P2;durP2;ratioP2
7450;SDS011;3767;42.688;23.360;2022-10-19T00:00:46;17.83;;;9.30;;
7450;SDS011;3767;42.688;23.360;2022-10-19T00:03:13;19.10;;;9.70;;
7450;SDS011;3767;42.688;23.360;2022-10-19T00:05:39;18.80;;;8.93;;
7450;SDS011;3767;42.688;23.360;2022-10-19T00:08:06;17.97;;;8.77;;
7450;SDS011;3767;42.688;23.360;2022-10-19T00:10:32;22.20;;;9.23;;
7450;SDS011;3767;42.688;23.360;2022-10-19T00:12:59;16.70;;;9.03;;
7450;SDS011;3767;42.688;23.360;2022-10-19T00:15:27;16.40;;;8.83;;
7450;SDS011;3767;42.688;23.360;2022-10-19T00:17:54;20.43;;;9.43;;
7450;SDS011;3767;42.688;23.360;2022-10-19T00:20:21;18.53;;;9.40;;
7450;SDS011;3767;42.688;23.360;2022-10-19T00:22:48;15.30;;;9.47;;
7450;SDS011;3767;42.688;23.360;2022-10-19T00:25:14;20.03;;;9.83;;
7450;SDS011;3767;42.688;23.360;2022-10-19T00:27:41;18.20;;;9.73;;
7450;SDS011;3767;42.688;23.360;2022-10-19T00:30:07;18.87;;;9.20;;
7450;SDS011;3767;42.688;23.360;2022-10-19T00:32:35;21.60;;;9.30;;
7450;SDS011;3767;42.688;23.360;2022-10-19T00:35:02;16.13;;;8.93;;
7450;SDS011;3767;42.688;23.360;2022-10-19T00:37:28;18.90;;;9.57;;
7450;SDS011;3767;42.688;23.360;2022-10-19T00:39:55;20.23;;;9.80;;
7450;SDS011;3767;42.688;23.360;2022-10-19T00:42:21;22.57;;;11.13;;
7450;SDS011;3767;42.688;23.360;2022-10-19T00:44:59;22.23;;;11.53;;
7450;SDS011;3767;42.688;23.360;2022-10-19T00:47:25;29.23;;;12.73;;
7450;SDS011;3767;42.688;23.360;2022-10-19T00:49:53;24.13;;;12.70;;
7450;SDS011;3767;42.688;23.360;2022-10-19T00:52:20;21.70;;;11.80;;
7450;SDS011;3767;42.688;23.360;2022-10-19T00:54:48;26.50;;;12.70;;
7450;SDS011;3767;42.688;23.360;2022-10-19T00:57:15;18.20;;;11.07;;
7450;SDS011;3767;42.688;23.360;2022-10-19T00:59:42;16.67;;;9.93;;
7450;SDS011;3767;42.688;23.360;2022-10-19T01:02:09;17.00;;;9.20;;
7450;SDS011;3767;42.688;23.360;2022-10-19T01:04:37;15.90;;;8.53;;
7450;SDS011;3767;42.688;23.360;2022-10-19T01:07:06;20.00;;;9.47;;
7450;SDS011;3767;42.688;23.360;2022-10-19T01:09:33;23.70;;;9.57;;
7450;SDS011;3767;42.688;23.360;2022-10-19T01:12:00;18.00;;;9.63;;
7450;SDS011;3767;42.688;23.360;2022-10-19T01:14:32;15.73;;;9.03;;
7450;SDS011;3767;42.688;23.360;2022-10-19T01:17:02;21.20;;;10.73;;
7450;SDS011;3767;42.688;23.360;2022-10-19T01:19:36;16.30;;;9.00;;
7450;SDS011;3767;42.688;23.360;2022-10-19T01:22:08;16.53;;;8.60;;
7450;SDS011;3767;42.688;23.360;2022-10-19T01:24:55;18.13;;;9.30;;
7450;SDS011;3767;42.688;23.360;2022-10-19T01:27:27;16.90;;;9.47;;
7450;SDS011;3767;42.688;23.360;2022-10-19T01:30:02;17.00;;;9.50;;
7450;SDS011;3767;42.688;23.360;2022-10-19T01:32:31;18.73;;;9.10;;
7450;SDS011;3767;42.688;23.360;2022-10-19T01:35:03;19.83;;;10.07;;
7450;SDS011;3767;42.688;23.360;2022-10-19T01:37:32;19.50;;;9.27;;
7450;SDS011;3767;42.688;23.360;2022-10-19T01:40:02;17.37;;;9.00;;
7450;SDS011;3767;42.688;23.360;2022-10-19T01:42:30;16.57;;;9.30;;
7450;SDS011;3767;42.688;23.360;2022-10-19T01:44:58;14.50;;;8.50;;
7450;SDS011;3767;42.688;23.360;2022-10-19T01:47:29;17.57;;;9.80;;
7450;SDS011;3767;42.688;23.360;2022-10-19T01:49:56;17.97;;;9.13;;
7450;SDS011;3767;42.688;23.360;2022-10-19T01:52:24;19.30;;;10.33;;
7450;SDS011;3767;42.688;23.360;2022-10-19T01:54:52;17.83;;;9.23;;
7450;SDS011;3767;42.688;23.360;2022-10-19T01:57:20;21.87;;;10.07;;
7450;SDS011;3767;42.688;23.360;2022-10-19T01:59:49;23.43;;;10.93;;
7450;SDS011;3767;42.688;23.360;2022-10-19T02:02:16;25.37;;;11.97;;
7450;SDS011;3767;42.688;23.360;2022-10-19T02:04:44;21.13;;;11.23;;
7450;SDS011;3767;42.688;23.360;2022-10-19T02:07:12;21.63;;;10.57;;
7450;SDS011;3767;42.688;23.360;2022-10-19T02:09:38;29.17;;;11.83;;
7450;SDS011;3767;42.688;23.360;2022-10-19T02:12:07;24.70;;;11.73;;
7450;SDS011;3767;42.688;23.360;2022-10-19T02:14:35;22.70;;;12.30;;
7450;SDS011;3767;42.688;23.360;2022-10-19T02:17:04;25.63;;;11.53;;
7450;SDS011;3767;42.688;23.360;2022-10-19T02:19:31;21.87;;;10.43;;
7450;SDS011;3767;42.688;23.360;2022-10-19T02:21:59;20.43;;;10.33;;
7450;SDS011;3767;42.688;23.360;2022-10-19T02:24:25;19.17;;;9.60;;
7450;SDS011;3767;42.688;23.360;2022-10-19T02:26:52;15.70;;;8.90;;
7450;SDS011;3767;42.688;23.360;2022-10-19T02:29:19;18.27;;;9.10;;
7450;SDS011;3767;42.688;23.360;2022-10-19T02:31:45;20.70;;;9.63;;
7450;SDS011;3767;42.688;23.360;2022-10-19T02:34:12;14.65;;;8.85;;
7450;SDS011;3767;42.688;23.360;2022-10-19T02:36:39;17.80;;;8.43;;
7450;SDS011;3767;42.688;23.360;2022-10-19T02:39:07;12.93;;;7.70;;
7450;SDS011;3767;42.688;23.360;2022-10-19T02:41:35;16.23;;;8.90;;
7450;SDS011;3767;42.688;23.360;2022-10-19T02:44:04;14.10;;;8.63;;
7450;SDS011;3767;42.688;23.360;2022-10-19T02:46:33;13.33;;;8.33;;
7450;SDS011;3767;42.688;23.360;2022-10-19T02:49:01;12.60;;;7.57;;
7450;SDS011;3767;42.688;23.360;2022-10-19T02:51:29;14.70;;;9.13;;
7450;SDS011;3767;42.688;23.360;2022-10-19T02:53:56;16.47;;;9.03;;
7450;SDS011;3767;42.688;23.360;2022-10-19T02:56:24;20.67;;;10.57;;
7450;SDS011;3767;42.688;23.360;2022-10-19T02:58:50;17.63;;;10.40;;
7450;SDS011;3767;42.688;23.360;2022-10-19T03:01:17;15.63;;;9.63;;
7450;SDS011;3767;42.688;23.360;2022-10-19T03:03:43;20.30;;;10.60;;
7450;SDS011;3767;42.688;23.360;2022-10-19T03:06:10;14.57;;;9.00;;
7450;SDS011;3767;42.688;23.360;2022-10-19T03:08:36;16.50;;;9.77;;
7450;SDS011;3767;42.688;23.360;2022-10-19T03:11:03;18.87;;;9.60;;
7450;SDS011;3767;42.688;23.360;2022-10-19T03:13:31;17.43;;;9.37;;
7450;SDS011;3767;42.688;23.360;2022-10-19T03:16:05;17.53;;;10.23;;
7450;SDS011;3767;42.688;23.360;2022-10-19T03:18:31;25.43;;;12.27;;
7450;SDS011;3767;42.688;23.360;2022-10-19T03:21:00;28.77;;;13.97;;
7450;SDS011;3767;42.688;23.360;2022-10-19T03:23:27;20.77;;;12.43;;
7450;SDS011;3767;42.688;23.360;2022-10-19T03:25:54;20.20;;;11.80;;
7450;SDS011;3767;42.688;23.360;2022-10-19T03:28:21;17.57;;;10.33;;
7450;SDS011;3767;42.688;23.360;2022-10-19T03:30:48;18.30;;;10.60;;
7450;SDS011;3767;42.688;23.360;2022-10-19T03:33:15;21.03;;;11.57;;
7450;SDS011;3767;42.688;23.360;2022-10-19T03:35:41;17.73;;;10.87;;
7450;SDS011;3767;42.688;23.360;2022-10-19T03:38:08;18.53;;;9.97;;
7450;SDS011;3767;42.688;23.360;2022-10-19T03:40:35;22.00;;;9.93;;
7450;SDS011;3767;42.688;23.360;2022-10-19T03:43:01;21.50;;;10.50;;
7450;SDS011;3767;42.688;23.360;2022-10-19T03:45:28;18.93;;;10.10;;
7450;SDS011;3767;42.688;23.360;2022-10-19T03:47:56;19.07;;;10.57;;
7450;SDS011;3767;42.688;23.360;2022-10-19T03:50:23;20.30;;;10.77;;
7450;SDS011;3767;42.688;23.360;2022-10-19T03:52:49;17.13;;;9.40;;
7450;SDS011;3767;42.688;23.360;2022-10-19T03:55:16;21.13;;;11.33;;
7450;SDS011;3767;42.688;23.360;2022-10-19T03:57:42;19.30;;;10.10;;
7450;SDS011;3767;42.688;23.360;2022-10-19T04:00:09;15.87;;;9.67;;
7450;SDS011;3767;42.688;23.360;2022-10-19T04:02:36;18.10;;;10.17;;
7450;SDS011;3767;42.688;23.360;2022-10-19T04:05:04;19.50;;;10.60;;
7450;SDS011;3767;42.688;23.360;2022-10-19T04:07:31;18.27;;;9.87;;
7450;SDS011;3767;42.688;23.360;2022-10-19T04:09:57;19.73;;;9.77;;
7450;SDS011;3767;42.688;23.360;2022-10-19T04:12:24;15.07;;;9.27;;
7450;SDS011;3767;42.688;23.360;2022-10-19T04:14:50;18.87;;;10.80;;
7450;SDS011;3767;42.688;23.360;2022-10-19T04:17:17;20.50;;;10.63;;
7450;SDS011;3767;42.688;23.360;2022-10-19T04:19:43;18.83;;;10.13;;
7450;SDS011;3767;42.688;23.360;2022-10-19T04:22:11;35.33;;;15.60;;
7450;SDS011;3767;42.688;23.360;2022-10-19T04:24:38;31.47;;;16.90;;
7450;SDS011;3767;42.688;23.360;2022-10-19T04:27:04;19.10;;;10.83;;
7450;SDS011;3767;42.688;23.360;2022-10-19T04:29:30;29.30;;;13.00;;
7450;SDS011;3767;42.688;23.360;2022-10-19T04:31:57;23.87;;;11.53;;
7450;SDS011;3767;42.688;23.360;2022-10-19T04:34:27;26.87;;;12.77;;
7450;SDS011;3767;42.688;23.360;2022-10-19T04:36:54;25.23;;;12.43;;
7450;SDS011;3767;42.688;23.360;2022-10-19T04:39:24;23.90;;;12.90;;
7450;SDS011;3767;42.688;23.360;2022-10-19T04:41:51;27.97;;;13.00;;
7450;SDS011;3767;42.688;23.360;2022-10-19T04:44:17;27.50;;;12.90;;
7450;SDS011;3767;42.688;23.360;2022-10-19T04:46:44;36.87;;;15.17;;
7450;SDS011;3767;42.688;23.360;2022-10-19T04:49:10;28.67;;;15.03;;
7450;SDS011;3767;42.688;23.360;2022-10-19T04:51:37;35.33;;;13.47;;
7450;SDS011;3767;42.688;23.360;2022-10-19T04:54:03;25.83;;;13.67;;
7450;SDS011;3767;42.688;23.360;2022-10-19T04:56:31;28.80;;;13.10;;
7450;SDS011;3767;42.688;23.360;2022-10-19T04:58:58;22.43;;;11.73;;
7450;SDS011;3767;42.688;23.360;2022-10-19T05:01:25;31.83;;;12.53;;
7450;SDS011;3767;42.688;23.360;2022-10-19T05:03:52;25.00;;;12.17;;
7450;SDS011;3767;42.688;23.360;2022-10-19T05:06:19;25.93;;;11.43;;
7450;SDS011;3767;42.688;23.360;2022-10-19T05:08:46;23.67;;;9.80;;
7450;SDS011;3767;42.688;23.360;2022-10-19T05:11:13;20.73;;;9.27;;
7450;SDS011;3767;42.688;23.360;2022-10-19T05:13:41;15.57;;;9.43;;
7450;SDS011;3767;42.688;23.360;2022-10-19T05:16:09;19.23;;;9.30;;
7450;SDS011;3767;42.688;23.360;2022-10-19T05:18:36;19.77;;;8.80;;
7450;SDS011;3767;42.688;23.360;2022-10-19T05:21:03;16.13;;;8.60;;
7450;SDS011;3767;42.688;23.360;2022-10-19T05:23:29;26.37;;;9.50;;
7450;SDS011;3767;42.688;23.360;2022-10-19T05:26:00;19.93;;;10.20;;
7450;SDS011;3767;42.688;23.360;2022-10-19T05:28:27;22.87;;;9.60;;
7450;SDS011;3767;42.688;23.360;2022-10-19T05:30:55;36.77;;;14.53;;
7450;SDS011;3767;42.688;23.360;2022-10-19T05:33:21;29.10;;;11.60;;
7450;SDS011;3767;42.688;23.360;2022-10-19T05:35:48;20.93;;;10.23;;
7450;SDS011;3767;42.688;23.360;2022-10-19T05:38:14;25.33;;;10.67;;
7450;SDS011;3767;42.688;23.360;2022-10-19T05:40:44;22.23;;;9.90;;
7450;SDS011;3767;42.688;23.360;2022-10-19T05:43:10;18.43;;;9.57;;
7450;SDS011;3767;42.688;23.360;2022-10-19T05:45:37;17.67;;;9.43;;
7450;SDS011;3767;42.688;23.360;2022-10-19T05:48:05;19.53;;;10.03;;
7450;SDS011;3767;42.688;23.360;2022-10-19T05:50:32;20.43;;;10.20;;
7450;SDS011;3767;42.688;23.360;2022-10-19T05:52:58;22.13;;;10.67;;
7450;SDS011;3767;42.688;23.360;2022-10-19T05:55:25;22.57;;;9.90;;
7450;SDS011;3767;42.688;23.360;2022-10-19T05:57:51;17.70;;;9.20;;
7450;SDS011;3767;42.688;23.360;2022-10-19T06:00:18;18.87;;;9.17;;
7450;SDS011;3767;42.688;23.360;2022-10-19T06:02:44;20.87;;;8.50;;
7450;SDS011;3767;42.688;23.360;2022-10-19T06:05:12;19.27;;;9.00;;
7450;SDS011;3767;42.688;23.360;2022-10-19T06:07:39;15.13;;;8.63;;
7450;SDS011;3767;42.688;23.360;2022-10-19T06:10:05;26.43;;;9.43;;
7450;SDS011;3767;42.688;23.360;2022-10-19T06:12:34;18.93;;;9.30;;
7450;SDS011;3767;42.688;23.360;2022-10-19T06:15:00;17.50;;;8.00;;
7450;SDS011;3767;42.688;23.360;2022-10-19T06:17:27;12.27;;;7.30;;
7450;SDS011;3767;42.688;23.360;2022-10-19T06:19:53;14.07;;;7.97;;
7450;SDS011;3767;42.688;23.360;2022-10-19T06:22:21;23.57;;;9.20;;
7450;SDS011;3767;42.688;23.360;2022-10-19T06:24:48;48.23;;;32.03;;
7450;SDS011;3767;42.688;23.360;2022-10-19T06:27:15;18.90;;;10.93;;
7450;SDS011;3767;42.688;23.360;2022-10-19T06:29:41;26.30;;;9.90;;
7450;SDS011;3767;42.688;23.360;2022-10-19T06:32:08;22.43;;;8.63;;
7450;SDS011;3767;42.688;23.360;2022-10-19T06:34:34;16.83;;;8.73;;
7450;SDS011;3767;42.688;23.360;2022-10-19T06:37:01;28.60;;;9.50;;
7450;SDS011;3767;42.688;23.360;2022-10-19T06:39:28;19.43;;;8.10;;
7450;SDS011;3767;42.688;23.360;2022-10-19T06:41:55;16.67;;;7.47;;
7450;SDS011;3767;42.688;23.360;2022-10-19T06:44:22;15.13;;;8.13;;
7450;SDS011;3767;42.688;23.360;2022-10-19T06:46:48;14.97;;;7.83;;
7450;SDS011;3767;42.688;23.360;2022-10-19T06:49:15;15.73;;;8.83;;
7450;SDS011;3767;42.688;23.360;2022-10-19T06:51:41;17.10;;;8.97;;
7450;SDS011;3767;42.688;23.360;2022-10-19T06:54:08;17.07;;;8.10;;
7450;SDS011;3767;42.688;23.360;2022-10-19T06:56:36;17.00;;;8.10;;
7450;SDS011;3767;42.688;23.360;2022-10-19T06:59:02;19.53;;;9.13;;
7450;SDS011;3767;42.688;23.360;2022-10-19T07:01:29;17.60;;;9.00;;
7450;SDS011;3767;42.688;23.360;2022-10-19T07:03:55;22.50;;;8.93;;
7450;SDS011;3767;42.688;23.360;2022-10-19T07:06:22;19.27;;;8.90;;
7450;SDS011;3767;42.688;23.360;2022-10-19T07:08:48;20.43;;;9.33;;
7450;SDS011;3767;42.688;23.360;2022-10-19T07:11:16;19.80;;;9.33;;
7450;SDS011;3767;42.688;23.360;2022-10-19T07:13:44;21.73;;;8.77;;
7450;SDS011;3767;42.688;23.360;2022-10-19T07:16:11;25.43;;;9.37;;
7450;SDS011;3767;42.688;23.360;2022-10-19T07:18:38;12.27;;;9.53;;
7450;SDS011;3767;42.688;23.360;2022-10-19T07:21:05;22.03;;;9.37;;
7450;SDS011;3767;42.688;23.360;2022-10-19T07:23:33;16.53;;;9.17;;
7450;SDS011;3767;42.688;23.360;2022-10-19T07:26:02;20.03;;;9.77;;
7450;SDS011;3767;42.688;23.360;2022-10-19T07:28:29;18.67;;;9.93;;
7450;SDS011;3767;42.688;23.360;2022-10-19T07:30:57;19.53;;;10.30;;
7450;SDS011;3767;42.688;23.360;2022-10-19T07:33:24;25.43;;;10.70;;
7450;SDS011;3767;42.688;23.360;2022-10-19T07:35:56;21.33;;;10.37;;
7450;SDS011;3767;42.688;23.360;2022-10-19T07:38:23;23.97;;;10.80;;
7450;SDS011;3767;42.688;23.360;2022-10-19T07:40:49;24.17;;;10.83;;
7450;SDS011;3767;42.688;23.360;2022-10-19T07:43:16;26.65;;;10.27;;
7450;SDS011;3767;42.688;23.360;2022-10-19T07:45:42;24.48;;;10.77;;
7450;SDS011;3767;42.688;23.360;2022-10-19T07:48:10;20.27;;;10.80;;
7450;SDS011;3767;42.688;23.360;2022-10-19T07:50:37;28.10;;;11.23;;
7450;SDS011;3767;42.688;23.360;2022-10-19T07:53:03;27.23;;;11.70;;
7450;SDS011;3767;42.688;23.360;2022-10-19T07:55:30;23.00;;;11.20;;
7450;SDS011;3767;42.688;23.360;2022-10-19T07:57:56;30.95;;;11.90;;
7450;SDS011;3767;42.688;23.360;2022-10-19T08:00:25;27.60;;;12.38;;
7450;SDS011;3767;42.688;23.360;2022-10-19T08:02:52;22.65;;;11.85;;
7450;SDS011;3767;42.688;23.360;2022-10-19T08:05:19;28.85;;;12.52;;
7450;SDS011;3767;42.688;23.360;2022-10-19T08:07:46;24.70;;;13.30;;
7450;SDS011;3767;42.688;23.360;2022-10-19T08:10:12;23.23;;;13.85;;
7450;SDS011;3767;42.688;23.360;2022-10-19T08:12:39;31.00;;;14.35;;
7450;SDS011;3767;42.688;23.360;2022-10-19T08:15:06;28.10;;;15.50;;
7450;SDS011;3767;42.688;23.360;2022-10-19T08:17:33;29.25;;;15.57;;
7450;SDS011;3767;42.688;23.360;2022-10-19T08:20:00;36.80;;;16.35;;
7450;SDS011;3767;42.688;23.360;2022-10-19T08:22:28;33.65;;;15.88;;
7450;SDS011;3767;42.688;23.360;2022-10-19T08:24:55;37.58;;;15.32;;
7450;SDS011;3767;42.688;23.360;2022-10-19T08:27:21;29.48;;;15.73;;
7450;SDS011;3767;42.688;23.360;2022-10-19T08:29:48;31.80;;;14.93;;
7450;SDS011;3767;42.688;23.360;2022-10-19T08:32:15;29.85;;;14.23;;
7450;SDS011;3767;42.688;23.360;2022-10-19T08:34:42;35.58;;;15.57;;
7450;SDS011;3767;42.688;23.360;2022-10-19T08:37:08;23.95;;;14.02;;
7450;SDS011;3767;42.688;23.360;2022-10-19T08:39:36;25.58;;;13.15;;
7450;SDS011;3767;42.688;23.360;2022-10-19T08:42:03;25.10;;;12.95;;
7450;SDS011;3767;42.688;23.360;2022-10-19T08:44:43;21.50;;;12.57;;
7450;SDS011;3767;42.688;23.360;2022-10-19T08:47:14;19.25;;;12.02;;
7450;SDS011;3767;42.688;23.360;2022-10-19T08:49:46;25.10;;;12.52;;
7450;SDS011;3767;42.688;23.360;2022-10-19T08:52:14;24.52;;;12.05;;
7450;SDS011;3767;42.688;23.360;2022-10-19T08:54:45;25.73;;;12.25;;
7450;SDS011;3767;42.688;23.360;2022-10-19T08:57:14;25.27;;;11.68;;
7450;SDS011;3767;42.688;23.360;2022-10-19T08:59:47;17.73;;;10.48;;
7450;SDS011;3767;42.688;23.360;2022-10-19T09:02:16;20.25;;;10.13;;
7450;SDS011;3767;42.688;23.360;2022-10-19T09:04:45;17.35;;;9.43;;
7450;SDS011;3767;42.688;23.360;2022-10-19T09:07:20;12.63;;;9.20;;
7450;SDS011;3767;42.688;23.360;2022-10-19T09:09:49;11.27;;;7.50;;
7450;SDS011;3767;42.688;23.360;2022-10-19T09:12:18;13.43;;;7.47;;
7450;SDS011;3767;42.688;23.360;2022-10-19T09:14:48;10.38;;;6.82;;
7450;SDS011;3767;42.688;23.360;2022-10-19T09:17:16;11.15;;;6.10;;
7450;SDS011;3767;42.688;23.360;2022-10-19T09:19:43;6.35;;;5.63;;
7450;SDS011;3767;42.688;23.360;2022-10-19T09:22:13;10.38;;;5.22;;
7450;SDS011;3767;42.688;23.360;2022-10-19T09:24:42;12.65;;;6.00;;
7450;SDS011;3767;42.688;23.360;2022-10-19T09:27:15;10.00;;;5.50;;
7450;SDS011;3767;42.688;23.360;2022-10-19T09:29:44;12.13;;;5.90;;
7450;SDS011;3767;42.688;23.360;2022-10-19T09:32:13;7.45;;;4.90;;
7450;SDS011;3767;42.688;23.360;2022-10-19T09:34:41;11.77;;;4.90;;
7450;SDS011;3767;42.688;23.360;2022-10-19T09:37:08;5.10;;;4.57;;
7450;SDS011;3767;42.688;23.360;2022-10-19T09:39:36;11.50;;;4.95;;
7450;SDS011;3767;42.688;23.360;2022-10-19T09:42:04;7.68;;;4.47;;
7450;SDS011;3767;42.688;23.360;2022-10-19T09:44:34;6.40;;;4.68;;
7450;SDS011;3767;42.688;23.360;2022-10-19T09:47:02;5.40;;;4.35;;
7450;SDS011;3767;42.688;23.360;2022-10-19T09:49:38;5.15;;;4.68;;
7450;SDS011;3767;42.688;23.360;2022-10-19T09:52:04;7.53;;;4.53;;
7450;SDS011;3767;42.688;23.360;2022-10-19T09:54:32;7.30;;;4.50;;
7450;SDS011;3767;42.688;23.360;2022-10-19T09:56:59;10.38;;;4.45;;
7450;SDS011;3767;42.688;23.360;2022-10-19T09:59:27;6.35;;;4.10;;
7450;SDS011;3767;42.688;23.360;2022-10-19T10:02:13;8.30;;;4.05;;
7450;SDS011;3767;42.688;23.360;2022-10-19T10:04:39;4.32;;;3.95;;
7450;SDS011;3767;42.688;23.360;2022-10-19T10:07:08;6.30;;;4.80;;
7450;SDS011;3767;42.688;23.360;2022-10-19T10:09:36;4.28;;;3.97;;
7450;SDS011;3767;42.688;23.360;2022-10-19T10:12:04;5.80;;;4.10;;
7450;SDS011;3767;42.688;23.360;2022-10-19T10:14:32;16.00;;;3.95;;
7450;SDS011;3767;42.688;23.360;2022-10-19T10:17:00;8.27;;;4.05;;
7450;SDS011;3767;42.688;23.360;2022-10-19T10:19:29;7.90;;;4.35;;
7450;SDS011;3767;42.688;23.360;2022-10-19T10:21:56;4.22;;;3.83;;
7450;SDS011;3767;42.688;23.360;2022-10-19T10:24:23;6.50;;;3.90;;
7450;SDS011;3767;42.688;23.360;2022-10-19T10:26:51;5.63;;;4.20;;
7450;SDS011;3767;42.688;23.360;2022-10-19T10:29:18;5.43;;;3.90;;
7450;SDS011;3767;42.688;23.360;2022-10-19T10:31:46;5.68;;;3.70;;
7450;SDS011;3767;42.688;23.360;2022-10-19T10:34:15;4.72;;;3.97;;
7450;SDS011;3767;42.688;23.360;2022-10-19T10:36:44;7.10;;;4.03;;
7450;SDS011;3767;42.688;23.360;2022-10-19T10:39:14;4.50;;;4.10;;
7450;SDS011;3767;42.688;23.360;2022-10-19T10:41:42;4.80;;;4.20;;
7450;SDS011;3767;42.688;23.360;2022-10-19T10:44:14;5.50;;;4.28;;
7450;SDS011;3767;42.688;23.360;2022-10-19T10:46:44;6.78;;;3.75;;
7450;SDS011;3767;42.688;23.360;2022-10-19T10:49:15;11.45;;;4.07;;
7450;SDS011;3767;42.688;23.360;2022-10-19T10:51:44;10.25;;;4.20;;
7450;SDS011;3767;42.688;23.360;2022-10-19T10:54:14;7.50;;;4.43;;
7450;SDS011;3767;42.688;23.360;2022-10-19T10:56:42;5.72;;;4.15;;
7450;SDS011;3767;42.688;23.360;2022-10-19T10:59:11;4.30;;;3.35;;
7450;SDS011;3767;42.688;23.360;2022-10-19T11:01:40;5.18;;;3.25;;
7450;SDS011;3767;42.688;23.360;2022-10-19T11:04:07;7.15;;;3.63;;
7450;SDS011;3767;42.688;23.360;2022-10-19T11:06:36;4.55;;;3.78;;
7450;SDS011;3767;42.688;23.360;2022-10-19T11:09:07;4.97;;;3.60;;
7450;SDS011;3767;42.688;23.360;2022-10-19T11:11:38;11.73;;;3.80;;
7450;SDS011;3767;42.688;23.360;2022-10-19T11:14:09;3.53;;;3.22;;
7450;SDS011;3767;42.688;23.360;2022-10-19T11:16:44;6.35;;;3.70;;
7450;SDS011;3767;42.688;23.360;2022-10-19T11:19:14;3.80;;;3.30;;
7450;SDS011;3767;42.688;23.360;2022-10-19T11:21:43;3.42;;;3.10;;
7450;SDS011;3767;42.688;23.360;2022-10-19T11:24:15;3.83;;;3.20;;
7450;SDS011;3767;42.688;23.360;2022-10-19T11:26:47;4.72;;;3.00;;
7450;SDS011;3767;42.688;23.360;2022-10-19T11:29:22;5.72;;;3.28;;
7450;SDS011;3767;42.688;23.360;2022-10-19T11:31:52;5.53;;;3.05;;
7450;SDS011;3767;42.688;23.360;2022-10-19T11:34:35;7.88;;;3.10;;
7450;SDS011;3767;42.688;23.360;2022-10-19T11:37:04;8.70;;;3.42;;
7450;SDS011;3767;42.688;23.360;2022-10-19T11:39:41;5.63;;;3.15;;
7450;SDS011;3767;42.688;23.360;2022-10-19T11:42:11;4.32;;;2.97;;
7450;SDS011;3767;42.688;23.360;2022-10-19T11:44:42;3.97;;;2.83;;
7450;SDS011;3767;42.688;23.360;2022-10-19T11:47:17;6.28;;;2.90;;
7450;SDS011;3767;42.688;23.360;2022-10-19T11:49:48;4.22;;;2.80;;
7450;SDS011;3767;42.688;23.360;2022-10-19T11:52:19;4.10;;;2.50;;
7450;SDS011;3767;42.688;23.360;2022-10-19T11:54:53;4.75;;;2.70;;
7450;SDS011;3767;42.688;23.360;2022-10-19T11:57:21;6.38;;;3.00;;
7450;SDS011;3767;42.688;23.360;2022-10-19T11:59:55;2.60;;;2.47;;
7450;SDS011;3767;42.688;23.360;2022-10-19T12:02:31;3.92;;;2.85;;
7450;SDS011;3767;42.688;23.360;2022-10-19T12:05:05;3.05;;;2.83;;
7450;SDS011;3767;42.688;23.360;2022-10-19T12:07:38;3.38;;;3.10;;
7450;SDS011;3767;42.688;23.360;2022-10-19T12:10:09;2.83;;;2.58;;
7450;SDS011;3767;42.688;23.360;2022-10-19T12:12:38;6.88;;;2.65;;
7450;SDS011;3767;42.688;23.360;2022-10-19T12:15:15;5.13;;;3.05;;
7450;SDS011;3767;42.688;23.360;2022-10-19T12:17:44;4.10;;;2.40;;
7450;SDS011;3767;42.688;23.360;2022-10-19T12:20:15;2.50;;;2.35;;
7450;SDS011;3767;42.688;23.360;2022-10-19T12:22:44;3.97;;;2.25;;
7450;SDS011;3767;42.688;23.360;2022-10-19T12:25:12;5.43;;;2.83;;
7450;SDS011;3767;42.688;23.360;2022-10-19T12:27:39;6.05;;;2.63;;
7450;SDS011;3767;42.688;23.360;2022-10-19T12:30:07;2.80;;;2.50;;
7450;SDS011;3767;42.688;23.360;2022-10-19T12:32:38;3.05;;;2.65;;
7450;SDS011;3767;42.688;23.360;2022-10-19T12:35:07;2.95;;;2.75;;
7450;SDS011;3767;42.688;23.360;2022-10-19T12:37:38;4.93;;;2.58;;
7450;SDS011;3767;42.688;23.360;2022-10-19T12:40:07;3.13;;;2.85;;
7450;SDS011;3767;42.688;23.360;2022-10-19T12:42:41;3.30;;;2.70;;
7450;SDS011;3767;42.688;23.360;2022-10-19T12:45:17;3.20;;;2.63;;
7450;SDS011;3767;42.688;23.360;2022-10-19T12:53:20;3.83;;;3.53;;
7450;SDS011;3767;42.688;23.360;2022-10-19T12:55:52;5.50;;;3.70;;
7450;SDS011;3767;42.688;23.360;2022-10-19T12:58:24;3.83;;;3.53;;
7450;SDS011;3767;42.688;23.360;2022-10-19T13:00:57;10.25;;;3.53;;
7450;SDS011;3767;42.688;23.360;2022-10-19T13:03:24;9.07;;;3.38;;
7450;SDS011;3767;42.688;23.360;2022-10-19T13:05:55;6.40;;;3.55;;
7450;SDS011;3767;42.688;23.360;2022-10-19T13:11:01;9.30;;;2.95;;
7450;SDS011;3767;42.688;23.360;2022-10-19T13:16:39;5.25;;;3.30;;
7450;SDS011;3767;42.688;23.360;2022-10-19T13:19:19;3.40;;;3.10;;
7450;SDS011;3767;42.688;23.360;2022-10-19T13:21:47;3.35;;;3.15;;
7450;SDS011;3767;42.688;23.360;2022-10-19T13:24:28;7.25;;;3.22;;
7450;SDS011;3767;42.688;23.360;2022-10-19T13:29:40;3.08;;;2.88;;
7450;SDS011;3767;42.688;23.360;2022-10-19T13:37:38;3.65;;;3.30;;
7450;SDS011;3767;42.688;23.360;2022-10-19T13:40:12;5.38;;;3.20;;
7450;SDS011;3767;42.688;23.360;2022-10-19T13:42:42;5.32;;;3.70;;
7450;SDS011;3767;42.688;23.360;2022-10-19T13:45:19;4.63;;;3.45;;
7450;SDS011;3767;42.688;23.360;2022-10-19T13:47:45;4.13;;;3.33;;
7450;SDS011;3767;42.688;23.360;2022-10-19T13:50:15;4.82;;;3.45;;
7450;SDS011;3767;42.688;23.360;2022-10-19T13:52:54;5.38;;;3.45;;
7450;SDS011;3767;42.688;23.360;2022-10-19T13:55:41;3.88;;;3.40;;
7450;SDS011;3767;42.688;23.360;2022-10-19T13:58:19;6.72;;;3.47;;
7450;SDS011;3767;42.688;23.360;2022-10-19T14:00:59;6.20;;;4.07;;
7450;SDS011;3767;42.688;23.360;2022-10-19T14:03:32;5.45;;;3.78;;
7450;SDS011;3767;42.688;23.360;2022-10-19T14:06:12;7.45;;;3.90;;
7450;SDS011;3767;42.688;23.360;2022-10-19T14:08:53;8.02;;;3.95;;
7450;SDS011;3767;42.688;23.360;2022-10-19T14:11:24;9.13;;;3.50;;
7450;SDS011;3767;42.688;23.360;2022-10-19T14:14:05;6.10;;;3.55;;
7450;SDS011;3767;42.688;23.360;2022-10-19T14:16:32;9.23;;;3.78;;
7450;SDS011;3767;42.688;23.360;2022-10-19T14:18:58;4.30;;;3.50;;
7450;SDS011;3767;42.688;23.360;2022-10-19T14:21:28;7.40;;;3.90;;
7450;SDS011;3767;42.688;23.360;2022-10-19T14:23:57;4.05;;;3.72;;
7450;SDS011;3767;42.688;23.360;2022-10-19T14:26:24;6.10;;;3.55;;
7450;SDS011;3767;42.688;23.360;2022-10-19T14:28:52;4.68;;;4.10;;
7450;SDS011;3767;42.688;23.360;2022-10-19T14:31:22;4.05;;;3.60;;
7450;SDS011;3767;42.688;23.360;2022-10-19T14:33:49;9.45;;;4.00;;
7450;SDS011;3767;42.688;23.360;2022-10-19T14:36:16;5.43;;;3.78;;
7450;SDS011;3767;42.688;23.360;2022-10-19T14:38:43;8.57;;;4.32;;
7450;SDS011;3767;42.688;23.360;2022-10-19T14:41:18;5.82;;;4.40;;
7450;SDS011;3767;42.688;23.360;2022-10-19T14:43:45;5.55;;;4.70;;
7450;SDS011;3767;42.688;23.360;2022-10-19T14:46:13;9.20;;;4.68;;
7450;SDS011;3767;42.688;23.360;2022-10-19T14:48:40;12.52;;;4.68;;
7450;SDS011;3767;42.688;23.360;2022-10-19T14:51:13;5.55;;;4.97;;
7450;SDS011;3767;42.688;23.360;2022-10-19T14:53:42;6.05;;;4.72;;
7450;SDS011;3767;42.688;23.360;2022-10-19T14:56:11;8.55;;;5.10;;
7450;SDS011;3767;42.688;23.360;2022-10-19T14:58:41;8.90;;;5.75;;
7450;SDS011;3767;42.688;23.360;2022-10-19T15:01:09;5.57;;;5.18;;
7450;SDS011;3767;42.688;23.360;2022-10-19T15:03:39;5.68;;;4.95;;
7450;SDS011;3767;42.688;23.360;2022-10-19T15:06:06;6.00;;;5.38;;
7450;SDS011;3767;42.688;23.360;2022-10-19T15:08:34;5.70;;;5.30;;
7450;SDS011;3767;42.688;23.360;2022-10-19T15:11:04;7.78;;;5.88;;
7450;SDS011;3767;42.688;23.360;2022-10-19T15:13:31;6.70;;;5.20;;
7450;SDS011;3767;42.688;23.360;2022-10-19T15:16:00;9.75;;;5.75;;